Buchanan #12 — WDC2499 — position and weather

sailwx.info

Track history (hours):
 
Tides and Currents Weather Stations Pressure Air Temp Water Temp Dewpoint Dewpoint Depression Visibility Wind Speed Wind Dir Waves Ship Positions

Buchanan #12

Owner: Buchanan Marine LP, New Haven, CT. More information available from US FCC via Universal Licensing System and Coast Guard Vessel Documentation Center.

Last reported at 2017-Dec-31 04:05 UTC. Time now 2018-Feb-18 21:54 UTC.
Position N 40°52' W 073°56'.
Warning: this ship's position is 49 days out of date.

Length 27 m; draft 3 m.

Type: Tug. MMSI: 366993970.

Date/timePositionNaut miles runAvg speedWind from/ knotsBaromVisibWave heightAir tempDewpointWater temp
2017-Dec-31 04:05N 40°52' W 073°56'1 7.7
2017-Dec-31 03:53N 40°51' W 073°57'4 7.5
2017-Dec-31 03:23N 40°47' W 073°59'3 7.9
2017-Dec-31 03:00N 40°45' W 074°01'4 8.3
2017-Dec-31 02:30N 40°41' W 074°02'0 0.7
2017-Dec-31 02:00N 40°40' W 074°02'1 2.8
2017-Dec-31 01:30N 40°40' W 074°03'2 3.9
2017-Dec-31 01:00N 40°40' W 074°01'1 1.5
2017-Dec-31 00:30N 40°40' W 074°02'1 2.6
2017-Dec-31 00:00N 40°40' W 074°03'2 3.5
2017-Dec-30 23:30N 40°40' W 074°01'0 0.0
2017-Dec-30 23:00N 40°40' W 074°01'0 0.0
2017-Dec-30 22:30N 40°40' W 074°01'4 5.6
2017-Dec-30 21:45N 40°44' W 073°58'2 0.7
2017-Dec-30 18:40N 40°46' W 073°57'1 4.6
2017-Dec-30 18:28N 40°45' W 073°58'2 3.6
2017-Dec-30 17:58N 40°43' W 073°58'2 3.1
2017-Dec-30 17:29N 40°42' W 073°60'2 3.3
2017-Dec-30 17:00N 40°41' W 074°01'2 3.2
2017-Dec-30 16:30N 40°40' W 074°03'0 0.9
2017-Dec-30 15:57N 40°40' W 074°03'0 1.1
2017-Dec-30 15:30N 40°40' W 074°03'0 0.9
2017-Dec-30 15:00N 40°40' W 074°03'0 0.3
2017-Dec-30 14:28N 40°40' W 074°04'2 3.6
2017-Dec-30 14:00N 40°41' W 074°02'2 5.0
2017-Dec-30 13:30N 40°44' W 074°01'2 4.1
2017-Dec-30 13:00N 40°46' W 074°01'8 0.3
2017-Dec-29 06:41N 40°53' W 073°56'5 8.8
2017-Dec-29 06:07N 40°48' W 073°59'1 8.2
2017-Dec-29 06:00N 40°47' W 073°59'4 7.9
2017-Dec-29 05:30N 40°44' W 074°01'4 7.4
2017-Dec-29 05:00N 40°40' W 074°03'0 0.9
2017-Dec-29 04:30N 40°40' W 074°02'1 2.1
2017-Dec-29 04:00N 40°40' W 074°01'2 3.5
2017-Dec-29 03:28N 40°40' W 074°03'0 0.0
2017-Dec-29 03:00N 40°40' W 074°03'0 0.1
2017-Dec-29 02:30N 40°40' W 074°04'0 0.1
2017-Dec-29 02:00N 40°40' W 074°03'0 0.2
2017-Dec-29 01:30N 40°40' W 074°03'0 0.3
2017-Dec-29 01:00N 40°40' W 074°03'2 5.0
2017-Dec-29 00:31N 40°42' W 074°02'2 3.4
2017-Dec-29 00:00N 40°43' W 074°01'2 4.8
2017-Dec-28 23:30N 40°46' W 074°00'6 0.4
2017-Dec-28 07:20N 40°51' W 073°57'2 7.6
2017-Dec-28 07:00N 40°49' W 073°58'4 7.1
2017-Dec-28 06:30N 40°46' W 074°01'3 6.2
2017-Dec-28 06:00N 40°43' W 074°02'3 5.4
2017-Dec-28 05:30N 40°40' W 074°03'1 1.3
2017-Dec-28 05:00N 40°40' W 074°03'0 0.1
2017-Dec-28 04:30N 40°40' W 074°03'1 1.3
2017-Dec-28 04:00N 40°40' W 074°03'4 7.5
2017-Dec-28 03:30N 40°43' W 073°59'3 0.5
2017-Dec-27 20:52N 40°46' W 073°57'2 6.2
2017-Dec-27 20:30N 40°44' W 073°58'3 6.2
2017-Dec-27 20:00N 40°41' W 074°01'2 4.9
2017-Dec-27 19:30N 40°40' W 074°03'0 0.1
2017-Dec-27 19:00N 40°40' W 074°03'1 1.8
2017-Dec-27 18:30N 40°41' W 074°02'2 4.8
2017-Dec-27 18:00N 40°43' W 074°01'3 5.3
2017-Dec-27 17:30N 40°45' W 074°01'3 0.1
2017-Dec-26 20:34N 40°48' W 073°59'1 9.4
2017-Dec-26 20:30N 40°47' W 073°59'4 8.7
2017-Dec-26 20:00N 40°43' W 074°02'3 6.2
2017-Dec-26 19:30N 40°40' W 074°03'2 4.8
2017-Dec-26 19:00N 40°41' W 074°00'1 2.7
2017-Dec-26 18:30N 40°41' W 074°02'1 2.3
2017-Dec-26 18:00N 40°40' W 074°03'2 3.3
2017-Dec-26 17:30N 40°40' W 074°01'2 3.4
2017-Dec-26 17:00N 40°40' W 074°03'2 3.7
2017-Dec-26 16:30N 40°41' W 074°01'1 1.4
2017-Dec-26 16:00N 40°41' W 074°01'1 1.4
2017-Dec-26 15:30N 40°40' W 074°01'0 0.0
2017-Dec-26 15:00N 40°40' W 074°01'0 0.0
2017-Dec-26 14:30N 40°40' W 074°01'0 0.0
2017-Dec-26 14:00N 40°40' W 074°01'0 0.0
2017-Dec-26 13:30N 40°40' W 074°01'0 0.0
2017-Dec-26 13:00N 40°40' W 074°01'0 0.0
2017-Dec-26 12:30N 40°40' W 074°01'0 0.0
2017-Dec-26 12:00N 40°40' W 074°01'0 0.0
2017-Dec-26 11:30N 40°40' W 074°01'0 0.0
2017-Dec-26 11:00N 40°40' W 074°01'0 0.0
2017-Dec-25 05:29N 40°40' W 074°01'2 3.8
2017-Dec-25 05:00N 40°40' W 074°03'2 4.0
2017-Dec-25 04:31N 40°41' W 074°01'3 6.6
2017-Dec-25 04:00N 40°44' W 073°58'3 6.2
2017-Dec-25 03:30N 40°46' W 073°57'3 6.2
2017-Dec-25 03:00N 40°48' W 073°53'3 5.8
2017-Dec-25 02:30N 40°48' W 073°49'1 1.5
2017-Dec-25 01:59N 40°48' W 073°51'2 4.8
2017-Dec-25 01:31N 40°48' W 073°53'4 7.0
2017-Dec-25 01:00N 40°46' W 073°57'3 5.5
2017-Dec-25 00:30N 40°43' W 073°58'2 4.9
2017-Dec-25 00:00N 40°41' W 074°00'3 5.3
2017-Dec-24 23:30N 40°40' W 074°03'0 0.1
2017-Dec-24 23:00N 40°40' W 074°03'0 0.0
2017-Dec-24 22:30N 40°40' W 074°03'0 0.0
2017-Dec-24 22:01N 40°40' W 074°03'0 0.0
2017-Dec-24 21:30N 40°40' W 074°03'0 0.0
2017-Dec-24 21:00N 40°40' W 074°03'0 0.0
2017-Dec-24 20:30N 40°40' W 074°03'0 0.1
2017-Dec-24 20:00N 40°40' W 074°03'2 3.8
2017-Dec-24 19:31N 40°40' W 074°01'0 0.9
2017-Dec-24 19:00N 40°40' W 074°01'1 1.3
2017-Dec-24 18:30N 40°41' W 074°02'4 7.8
2017-Dec-24 18:00N 40°43' W 073°58'3 6.7
2017-Dec-24 17:30N 40°47' W 073°56'3 6.6
2017-Dec-24 17:00N 40°48' W 073°52'1 2.9
2017-Dec-24 16:30N 40°48' W 073°51'0 0.0
2017-Dec-24 15:59N 40°48' W 073°51'0 0.0
2017-Dec-24 15:30N 40°48' W 073°51'1 2.3
2017-Dec-24 14:59N 40°48' W 073°49'0 0.6
2017-Dec-24 14:30N 40°48' W 073°49'3 6.2
2017-Dec-24 14:00N 40°48' W 073°53'3 6.0
2017-Dec-24 13:30N 40°46' W 073°57'3 6.2
2017-Dec-24 13:00N 40°44' W 073°58'2 4.9
2017-Dec-24 12:30N 40°42' W 074°00'2 4.3
2017-Dec-24 12:01N 40°40' W 074°02'1 1.8
2017-Dec-24 11:30N 40°40' W 074°03'0 0.0
2017-Dec-24 11:00N 40°40' W 074°03'0 0.0
2017-Dec-24 10:30N 40°40' W 074°03'0 0.0
2017-Dec-24 10:00N 40°40' W 074°03'0 0.0
2017-Dec-24 09:30N 40°40' W 074°03'0 0.0
2017-Dec-24 09:00N 40°40' W 074°03'0 0.0
2017-Dec-24 08:30N 40°40' W 074°03'0 0.1
2017-Dec-24 08:00N 40°40' W 074°03'0 0.0
2017-Dec-24 07:30N 40°40' W 074°03'0 0.2
2017-Dec-24 07:00N 40°40' W 074°04'5 8.9
2017-Dec-24 06:30N 40°39' W 074°09'2 3.9
2017-Dec-24 06:00N 40°38' W 074°12'0 0.0
2017-Dec-24 05:30N 40°38' W 074°12'0 0.0
2017-Dec-24 05:00N 40°38' W 074°12'0 0.0
2017-Dec-24 04:30N 40°38' W 074°12'0 0.0
2017-Dec-24 04:00N 40°38' W 074°12'0 0.0
2017-Dec-24 03:30N 40°38' W 074°12'0 0.0
2017-Dec-24 03:00N 40°38' W 074°12'0 0.0
2017-Dec-24 02:29N 40°38' W 074°12'2 3.7
2017-Dec-24 02:00N 40°39' W 074°09'510.0
2017-Dec-24 01:30N 40°40' W 074°03'2 3.2
2017-Dec-24 01:00N 40°40' W 074°01'2 3.8
2017-Dec-24 00:30N 40°40' W 074°03'1 2.0
2017-Dec-24 00:00N 40°41' W 074°03'3 6.8
2017-Dec-23 23:30N 40°44' W 074°01'4 7.2
2017-Dec-23 23:00N 40°47' W 073°60'4 7.1
2017-Dec-23 22:30N 40°50' W 073°57'3 6.4
2017-Dec-23 21:58N 40°54' W 073°56'5 0.3
2017-Dec-23 02:16N 40°59' W 073°54'2 5.2
2017-Dec-23 01:59N 40°57' W 073°54'2 4.8
2017-Dec-23 01:30N 40°55' W 073°55'2 4.4
2017-Dec-23 01:00N 40°53' W 073°56'2 4.1
2017-Dec-23 00:30N 40°51' W 073°57'2 3.6
2017-Dec-23 00:00N 40°50' W 073°58'2 3.1
2017-Dec-22 23:30N 40°48' W 073°59'1 2.6
2017-Dec-22 23:00N 40°47' W 073°60'1 2.4
2017-Dec-22 22:30N 40°46' W 074°00'1 2.5
2017-Dec-22 22:00N 40°45' W 074°01'2 3.1
2017-Dec-22 21:30N 40°43' W 074°02'2 3.6
2017-Dec-22 21:00N 40°42' W 074°02'2 3.8
2017-Dec-22 20:30N 40°40' W 074°03'0 0.4
2017-Dec-22 20:00N 40°40' W 074°03'0 0.2
2017-Dec-22 19:30N 40°40' W 074°03'1 1.8
2017-Dec-22 19:01N 40°40' W 074°02'4 7.3
2017-Dec-22 18:30N 40°43' W 073°59'4 8.0
2017-Dec-22 17:58N 40°47' W 073°56'2 4.6
2017-Dec-22 17:26N 40°48' W 073°54'2 4.7
2017-Dec-22 17:00N 40°48' W 073°51'2 1.0
2017-Dec-22 15:01N 40°49' W 073°49'0 0.0
2017-Dec-22 15:00N 40°49' W 073°49'1 2.8
2017-Dec-22 14:29N 40°48' W 073°51'3 5.7
2017-Dec-22 14:00N 40°48' W 073°54'3 7.0
2017-Dec-22 13:30N 40°45' W 073°57'3 6.1
2017-Dec-22 13:00N 40°43' W 073°59'3 5.6
2017-Dec-22 12:30N 40°41' W 074°02'2 3.6
2017-Dec-22 12:01N 40°40' W 074°03'2 4.5
2017-Dec-22 11:30N 40°41' W 074°01'1 1.2
2017-Dec-22 11:00N 40°42' W 074°01'3 5.5
2017-Dec-22 10:31N 40°40' W 074°03'2 4.6
2017-Dec-22 10:00N 40°41' W 074°01'1 1.8
2017-Dec-22 09:31N 40°41' W 074°02'1 2.9
2017-Dec-22 09:01N 40°40' W 074°03'0 0.1
2017-Dec-22 08:30N 40°40' W 074°03'0 0.5
2017-Dec-22 08:00N 40°40' W 074°03'3 5.0
2017-Dec-22 07:30N 40°42' W 074°02'3 5.9
2017-Dec-22 07:01N 40°45' W 074°01'3 5.3
2017-Dec-22 06:30N 40°47' W 073°59'2 4.8
2017-Dec-22 06:00N 40°49' W 073°58'2 4.5
2017-Dec-22 05:30N 40°51' W 073°57'2 4.0
2017-Dec-22 05:00N 40°53' W 073°56'3 4.1
2017-Dec-22 04:17N 40°56' W 073°55'4 0.2
2017-Dec-21 12:02N 40°60' W 073°53'0 5.4
2017-Dec-21 11:59N 40°59' W 073°54'3 5.2
2017-Dec-21 11:30N 40°57' W 073°54'2 4.7
2017-Dec-21 11:00N 40°55' W 073°55'2 4.4
2017-Dec-21 10:30N 40°53' W 073°56'2 4.0
2017-Dec-21 10:01N 40°51' W 073°57'2 3.5
2017-Dec-21 09:30N 40°49' W 073°58'2 3.6
2017-Dec-21 09:00N 40°48' W 073°59'2 3.7
2017-Dec-21 08:30N 40°46' W 074°00'2 3.8
2017-Dec-21 08:00N 40°44' W 074°01'2 4.2
2017-Dec-21 07:30N 40°42' W 074°02'2 4.3
2017-Dec-21 07:00N 40°40' W 074°03'1 1.2
2017-Dec-21 06:31N 40°40' W 074°03'3 5.9
2017-Dec-21 06:00N 40°42' W 074°00'4 7.2
2017-Dec-21 05:30N 40°45' W 073°58'4 7.6
2017-Dec-21 05:00N 40°48' W 073°55'4 7.1
2017-Dec-21 04:30N 40°48' W 073°50'  
Track history (hours):
 
Tides and Currents Weather Stations Pressure Air Temp Water Temp Dewpoint Dewpoint Depression Visibility Wind Speed Wind Dir Waves Ship Positions

Buchanan #12

Owner: Buchanan Marine LP, New Haven, CT. More information available from US FCC via Universal Licensing System and Coast Guard Vessel Documentation Center.

Last reported at 2017-Dec-31 04:05 UTC. Time now 2018-Feb-18 21:54 UTC.
Position N 40°52' W 073°56'.
Warning: this ship's position is 49 days out of date.

Length 27 m; draft 3 m.

Type: Tug. MMSI: 366993970.

Date/timePositionNaut miles runAvg speedWind from/ knotsBaromVisibWave heightAir tempDewpointWater temp
2017-Dec-31 04:05N 40°52' W 073°56'1 7.7
2017-Dec-31 03:53N 40°51' W 073°57'4 7.5
2017-Dec-31 03:23N 40°47' W 073°59'3 7.9
2017-Dec-31 03:00N 40°45' W 074°01'4 8.3
2017-Dec-31 02:30N 40°41' W 074°02'0 0.7
2017-Dec-31 02:00N 40°40' W 074°02'1 2.8
2017-Dec-31 01:30N 40°40' W 074°03'2 3.9
2017-Dec-31 01:00N 40°40' W 074°01'1 1.5
2017-Dec-31 00:30N 40°40' W 074°02'1 2.6
2017-Dec-31 00:00N 40°40' W 074°03'2 3.5
2017-Dec-30 23:30N 40°40' W 074°01'0 0.0
2017-Dec-30 23:00N 40°40' W 074°01'0 0.0
2017-Dec-30 22:30N 40°40' W 074°01'4 5.6
2017-Dec-30 21:45N 40°44' W 073°58'2 0.7
2017-Dec-30 18:40N 40°46' W 073°57'1 4.6
2017-Dec-30 18:28N 40°45' W 073°58'2 3.6
2017-Dec-30 17:58N 40°43' W 073°58'2 3.1
2017-Dec-30 17:29N 40°42' W 073°60'2 3.3
2017-Dec-30 17:00N 40°41' W 074°01'2 3.2
2017-Dec-30 16:30N 40°40' W 074°03'0 0.9
2017-Dec-30 15:57N 40°40' W 074°03'0 1.1
2017-Dec-30 15:30N 40°40' W 074°03'0 0.9
2017-Dec-30 15:00N 40°40' W 074°03'0 0.3
2017-Dec-30 14:28N 40°40' W 074°04'2 3.6
2017-Dec-30 14:00N 40°41' W 074°02'2 5.0
2017-Dec-30 13:30N 40°44' W 074°01'2 4.1
2017-Dec-30 13:00N 40°46' W 074°01'8 0.3
2017-Dec-29 06:41N 40°53' W 073°56'5 8.8
2017-Dec-29 06:07N 40°48' W 073°59'1 8.2
2017-Dec-29 06:00N 40°47' W 073°59'4 7.9
2017-Dec-29 05:30N 40°44' W 074°01'4 7.4
2017-Dec-29 05:00N 40°40' W 074°03'0 0.9
2017-Dec-29 04:30N 40°40' W 074°02'1 2.1
2017-Dec-29 04:00N 40°40' W 074°01'2 3.5
2017-Dec-29 03:28N 40°40' W 074°03'0 0.0
2017-Dec-29 03:00N 40°40' W 074°03'0 0.1
2017-Dec-29 02:30N 40°40' W 074°04'0 0.1
2017-Dec-29 02:00N 40°40' W 074°03'0 0.2
2017-Dec-29 01:30N 40°40' W 074°03'0 0.3
2017-Dec-29 01:00N 40°40' W 074°03'2 5.0
2017-Dec-29 00:31N 40°42' W 074°02'2 3.4
2017-Dec-29 00:00N 40°43' W 074°01'2 4.8
2017-Dec-28 23:30N 40°46' W 074°00'6 0.4
2017-Dec-28 07:20N 40°51' W 073°57'2 7.6
2017-Dec-28 07:00N 40°49' W 073°58'4 7.1
2017-Dec-28 06:30N 40°46' W 074°01'3 6.2
2017-Dec-28 06:00N 40°43' W 074°02'3 5.4
2017-Dec-28 05:30N 40°40' W 074°03'1 1.3
2017-Dec-28 05:00N 40°40' W 074°03'0 0.1
2017-Dec-28 04:30N 40°40' W 074°03'1 1.3
2017-Dec-28 04:00N 40°40' W 074°03'4 7.5
2017-Dec-28 03:30N 40°43' W 073°59'3 0.5
2017-Dec-27 20:52N 40°46' W 073°57'2 6.2
2017-Dec-27 20:30N 40°44' W 073°58'3 6.2
2017-Dec-27 20:00N 40°41' W 074°01'2 4.9
2017-Dec-27 19:30N 40°40' W 074°03'0 0.1
2017-Dec-27 19:00N 40°40' W 074°03'1 1.8
2017-Dec-27 18:30N 40°41' W 074°02'2 4.8
2017-Dec-27 18:00N 40°43' W 074°01'3 5.3
2017-Dec-27 17:30N 40°45' W 074°01'3 0.1
2017-Dec-26 20:34N 40°48' W 073°59'1 9.4
2017-Dec-26 20:30N 40°47' W 073°59'4 8.7
2017-Dec-26 20:00N 40°43' W 074°02'3 6.2
2017-Dec-26 19:30N 40°40' W 074°03'2 4.8
2017-Dec-26 19:00N 40°41' W 074°00'1 2.7
2017-Dec-26 18:30N 40°41' W 074°02'1 2.3
2017-Dec-26 18:00N 40°40' W 074°03'2 3.3
2017-Dec-26 17:30N 40°40' W 074°01'2 3.4
2017-Dec-26 17:00N 40°40' W 074°03'2 3.7
2017-Dec-26 16:30N 40°41' W 074°01'1 1.4
2017-Dec-26 16:00N 40°41' W 074°01'1 1.4
2017-Dec-26 15:30N 40°40' W 074°01'0 0.0
2017-Dec-26 15:00N 40°40' W 074°01'0 0.0
2017-Dec-26 14:30N 40°40' W 074°01'0 0.0
2017-Dec-26 14:00N 40°40' W 074°01'0 0.0
2017-Dec-26 13:30N 40°40' W 074°01'0 0.0
2017-Dec-26 13:00N 40°40' W 074°01'0 0.0
2017-Dec-26 12:30N 40°40' W 074°01'0 0.0
2017-Dec-26 12:00N 40°40' W 074°01'0 0.0
2017-Dec-26 11:30N 40°40' W 074°01'0 0.0
2017-Dec-26 11:00N 40°40' W 074°01'0 0.0
2017-Dec-25 05:29N 40°40' W 074°01'2 3.8
2017-Dec-25 05:00N 40°40' W 074°03'2 4.0
2017-Dec-25 04:31N 40°41' W 074°01'3 6.6
2017-Dec-25 04:00N 40°44' W 073°58'3 6.2
2017-Dec-25 03:30N 40°46' W 073°57'3 6.2
2017-Dec-25 03:00N 40°48' W 073°53'3 5.8
2017-Dec-25 02:30N 40°48' W 073°49'1 1.5
2017-Dec-25 01:59N 40°48' W 073°51'2 4.8
2017-Dec-25 01:31N 40°48' W 073°53'4 7.0
2017-Dec-25 01:00N 40°46' W 073°57'3 5.5
2017-Dec-25 00:30N 40°43' W 073°58'2 4.9
2017-Dec-25 00:00N 40°41' W 074°00'3 5.3
2017-Dec-24 23:30N 40°40' W 074°03'0 0.1
2017-Dec-24 23:00N 40°40' W 074°03'0 0.0
2017-Dec-24 22:30N 40°40' W 074°03'0 0.0
2017-Dec-24 22:01N 40°40' W 074°03'0 0.0
2017-Dec-24 21:30N 40°40' W 074°03'0 0.0
2017-Dec-24 21:00N 40°40' W 074°03'0 0.0
2017-Dec-24 20:30N 40°40' W 074°03'0 0.1
2017-Dec-24 20:00N 40°40' W 074°03'2 3.8
2017-Dec-24 19:31N 40°40' W 074°01'0 0.9
2017-Dec-24 19:00N 40°40' W 074°01'1 1.3
2017-Dec-24 18:30N 40°41' W 074°02'4 7.8
2017-Dec-24 18:00N 40°43' W 073°58'3 6.7
2017-Dec-24 17:30N 40°47' W 073°56'3 6.6
2017-Dec-24 17:00N 40°48' W 073°52'1 2.9
2017-Dec-24 16:30N 40°48' W 073°51'0 0.0
2017-Dec-24 15:59N 40°48' W 073°51'0 0.0
2017-Dec-24 15:30N 40°48' W 073°51'1 2.3
2017-Dec-24 14:59N 40°48' W 073°49'0 0.6
2017-Dec-24 14:30N 40°48' W 073°49'3 6.2
2017-Dec-24 14:00N 40°48' W 073°53'3 6.0
2017-Dec-24 13:30N 40°46' W 073°57'3 6.2
2017-Dec-24 13:00N 40°44' W 073°58'2 4.9
2017-Dec-24 12:30N 40°42' W 074°00'2 4.3
2017-Dec-24 12:01N 40°40' W 074°02'1 1.8
2017-Dec-24 11:30N 40°40' W 074°03'0 0.0
2017-Dec-24 11:00N 40°40' W 074°03'0 0.0
2017-Dec-24 10:30N 40°40' W 074°03'0 0.0
2017-Dec-24 10:00N 40°40' W 074°03'0 0.0
2017-Dec-24 09:30N 40°40' W 074°03'0 0.0
2017-Dec-24 09:00N 40°40' W 074°03'0 0.0
2017-Dec-24 08:30N 40°40' W 074°03'0 0.1
2017-Dec-24 08:00N 40°40' W 074°03'0 0.0
2017-Dec-24 07:30N 40°40' W 074°03'0 0.2
2017-Dec-24 07:00N 40°40' W 074°04'5 8.9
2017-Dec-24 06:30N 40°39' W 074°09'2 3.9
2017-Dec-24 06:00N 40°38' W 074°12'0 0.0
2017-Dec-24 05:30N 40°38' W 074°12'0 0.0
2017-Dec-24 05:00N 40°38' W 074°12'0 0.0
2017-Dec-24 04:30N 40°38' W 074°12'0 0.0
2017-Dec-24 04:00N 40°38' W 074°12'0 0.0
2017-Dec-24 03:30N 40°38' W 074°12'0 0.0
2017-Dec-24 03:00N 40°38' W 074°12'0 0.0
2017-Dec-24 02:29N 40°38' W 074°12'2 3.7
2017-Dec-24 02:00N 40°39' W 074°09'510.0
2017-Dec-24 01:30N 40°40' W 074°03'2 3.2
2017-Dec-24 01:00N 40°40' W 074°01'2 3.8
2017-Dec-24 00:30N 40°40' W 074°03'1 2.0
2017-Dec-24 00:00N 40°41' W 074°03'3 6.8
2017-Dec-23 23:30N 40°44' W 074°01'4 7.2
2017-Dec-23 23:00N 40°47' W 073°60'4 7.1
2017-Dec-23 22:30N 40°50' W 073°57'3 6.4
2017-Dec-23 21:58N 40°54' W 073°56'5 0.3
2017-Dec-23 02:16N 40°59' W 073°54'2 5.2
2017-Dec-23 01:59N 40°57' W 073°54'2 4.8
2017-Dec-23 01:30N 40°55' W 073°55'2 4.4
2017-Dec-23 01:00N 40°53' W 073°56'2 4.1
2017-Dec-23 00:30N 40°51' W 073°57'2 3.6
2017-Dec-23 00:00N 40°50' W 073°58'2 3.1
2017-Dec-22 23:30N 40°48' W 073°59'1 2.6
2017-Dec-22 23:00N 40°47' W 073°60'1 2.4
2017-Dec-22 22:30N 40°46' W 074°00'1 2.5
2017-Dec-22 22:00N 40°45' W 074°01'2 3.1
2017-Dec-22 21:30N 40°43' W 074°02'2 3.6
2017-Dec-22 21:00N 40°42' W 074°02'2 3.8
2017-Dec-22 20:30N 40°40' W 074°03'0 0.4
2017-Dec-22 20:00N 40°40' W 074°03'0 0.2
2017-Dec-22 19:30N 40°40' W 074°03'1 1.8
2017-Dec-22 19:01N 40°40' W 074°02'4 7.3
2017-Dec-22 18:30N 40°43' W 073°59'4 8.0
2017-Dec-22 17:58N 40°47' W 073°56'2 4.6
2017-Dec-22 17:26N 40°48' W 073°54'2 4.7
2017-Dec-22 17:00N 40°48' W 073°51'2 1.0
2017-Dec-22 15:01N 40°49' W 073°49'0 0.0
2017-Dec-22 15:00N 40°49' W 073°49'1 2.8
2017-Dec-22 14:29N 40°48' W 073°51'3 5.7
2017-Dec-22 14:00N 40°48' W 073°54'3 7.0
2017-Dec-22 13:30N 40°45' W 073°57'3 6.1
2017-Dec-22 13:00N 40°43' W 073°59'3 5.6
2017-Dec-22 12:30N 40°41' W 074°02'2 3.6
2017-Dec-22 12:01N 40°40' W 074°03'2 4.5
2017-Dec-22 11:30N 40°41' W 074°01'1 1.2
2017-Dec-22 11:00N 40°42' W 074°01'3 5.5
2017-Dec-22 10:31N 40°40' W 074°03'2 4.6
2017-Dec-22 10:00N 40°41' W 074°01'1 1.8
2017-Dec-22 09:31N 40°41' W 074°02'1 2.9
2017-Dec-22 09:01N 40°40' W 074°03'0 0.1
2017-Dec-22 08:30N 40°40' W 074°03'0 0.5
2017-Dec-22 08:00N 40°40' W 074°03'3 5.0
2017-Dec-22 07:30N 40°42' W 074°02'3 5.9
2017-Dec-22 07:01N 40°45' W 074°01'3 5.3
2017-Dec-22 06:30N 40°47' W 073°59'2 4.8
2017-Dec-22 06:00N 40°49' W 073°58'2 4.5
2017-Dec-22 05:30N 40°51' W 073°57'2 4.0
2017-Dec-22 05:00N 40°53' W 073°56'3 4.1
2017-Dec-22 04:17N 40°56' W 073°55'4 0.2
2017-Dec-21 12:02N 40°60' W 073°53'0 5.4
2017-Dec-21 11:59N 40°59' W 073°54'3 5.2
2017-Dec-21 11:30N 40°57' W 073°54'2 4.7
2017-Dec-21 11:00N 40°55' W 073°55'2 4.4
2017-Dec-21 10:30N 40°53' W 073°56'2 4.0
2017-Dec-21 10:01N 40°51' W 073°57'2 3.5
2017-Dec-21 09:30N 40°49' W 073°58'2 3.6
2017-Dec-21 09:00N 40°48' W 073°59'2 3.7
2017-Dec-21 08:30N 40°46' W 074°00'2 3.8
2017-Dec-21 08:00N 40°44' W 074°01'2 4.2
2017-Dec-21 07:30N 40°42' W 074°02'2 4.3
2017-Dec-21 07:00N 40°40' W 074°03'1 1.2
2017-Dec-21 06:31N 40°40' W 074°03'3 5.9
2017-Dec-21 06:00N 40°42' W 074°00'4 7.2
2017-Dec-21 05:30N 40°45' W 073°58'4 7.6
2017-Dec-21 05:00N 40°48' W 073°55'4 7.1
2017-Dec-21 04:30N 40°48' W 073°50'  

Dump ship's entire track history